CheckWX is a tool to help pilots better visualize weather data.  It is not intended as a substitute for an official pre-flight weather briefing.

00:45:23 UTC

YPJT TAF
Perth Jandakot Airport
Perth, Australia
TAF YPJT 252228Z 2600/2618 08012KT CAVOK FM260100 05012KT CAVOK FM260900 20010KT CAVOK FM261300 VRB05KT CAVOK

Mar-26@
00:00 UTC

Mar-26 @ 00:00 UTC

Mar-26@
01:00 UTC

Mar-26 @ 01:00 UTC

TAF YPJT 252228Z 2600/2618 08012KT CAVOK
Wind
  • 080° at 12 KTS
Conditions
No significant weather
Cloud Levels
  • No significant clouds

Mar-26@
01:00 UTC

Mar-26 @ 01:00 UTC

Mar-26@
09:00 UTC

Mar-26 @ 09:00 UTC

FM260100 05012KT CAVOK

From

From Standard forecast or significant change

Wind
  • 050° at 12 KTS
Conditions
No significant weather
Cloud Levels
  • No significant clouds

Mar-26@
09:00 UTC

Mar-26 @ 09:00 UTC

Mar-26@
13:00 UTC

Mar-26 @ 13:00 UTC

FM260900 20010KT CAVOK

From

From Standard forecast or significant change

Wind
  • 200° at 10 KTS
Conditions
No significant weather
Cloud Levels
  • No significant clouds

Mar-26@
13:00 UTC

Mar-26 @ 13:00 UTC

Mar-26@
18:00 UTC

Mar-26 @ 18:00 UTC

FM261300 VRB05KT CAVOK

From

From Standard forecast or significant change

Wind
  • Variable at 5 KTS
Conditions
No significant weather
Cloud Levels
  • No significant clouds